SBPL/PNZ METAR and TAF weather

Enter ICAO airport designator
Station Type Date Time Source
SBPL METAR 2021/08/01 16:00 UTC NOAA

SBPL 011600Z 17014KT 9999 SCT020 BKN030 25/16 Q1022


Station Type Date Time Source
SBPL Decoded METAR 2021/08/01 16:00 UTC NOAA

Petrolina , Brazil (SBPL) 09-21S 040-33W
Aug 01, 2021 - 12:00 PM EDT / 2021.08.01 1600 UTC
Wind: from the S (170 degrees) at 16 MPH (14 KT):0
Visibility: greater than 7 mile(s):0
Sky conditions: mostly cloudy
Temperature: 77 F (25 C)
Dew Point: 60 F (16 C)
Relative Humidity: 57%
Pressure (altimeter): 30.18 in. Hg (1022 hPa)
ob: SBPL 011600Z 17014KT 9999 SCT020 BKN030 25/16 Q1022
cycle: 16

Station Type Date Time Source
SBPL TAF 2021/08/01 18:10 UTC NOAA

TAF SBPL 011504Z 0118/0218 17013KT 8000 BKN025 TN21/0209Z TX28/0217Z
RMK PHI

Example: see airport list